createdAt,value
2018-02-24T00:00:10.514Z,62.30
2018-02-24T00:02:38.067Z,58.63
2018-02-24T00:05:09.607Z,58.13
2018-02-24T00:07:37.777Z,56.35
2018-02-24T00:10:06.456Z,65.18
2018-02-24T00:12:39.076Z,53.13
2018-02-24T00:15:06.779Z,50.55
2018-02-24T00:17:34.374Z,49.17
2018-02-24T00:20:01.964Z,50.15
2018-02-24T00:22:29.514Z,48.40
2018-02-24T00:24:57.183Z,47.08
2018-02-24T00:27:24.747Z,50.42
2018-02-24T00:29:52.234Z,53.05
2018-02-24T00:32:19.786Z,56.92
2018-02-24T00:34:47.518Z,52.90
2018-02-24T00:37:15.010Z,45.78
2018-02-24T00:39:42.478Z,50.58
2018-02-24T00:42:10.033Z,48.75
2018-02-24T00:44:37.663Z,46.67
2018-02-24T00:47:05.350Z,51.72
2018-02-24T00:49:32.816Z,51.13
2018-02-24T00:52:00.261Z,51.13
2018-02-24T00:54:28.394Z,46.53
2018-02-24T00:56:55.995Z,50.83
2018-02-24T00:59:23.457Z,57.60
2018-02-24T01:01:50.944Z,51.58
2018-02-24T01:04:18.387Z,56.40
2018-02-24T01:06:45.916Z,49.75
2018-02-24T01:09:13.359Z,47.25
2018-02-24T01:11:40.815Z,48.38
2018-02-24T01:14:08.270Z,47.75
2018-02-24T01:16:35.734Z,42.47
2018-02-24T01:19:03.209Z,46.58
2018-02-24T01:21:30.659Z,50.65
2018-02-24T01:23:58.133Z,48.97
2018-02-24T01:26:25.583Z,55.03
2018-02-24T01:28:53.056Z,51.25
2018-02-24T01:31:20.542Z,42.55
2018-02-24T01:33:47.989Z,44.60
2018-02-24T01:36:15.446Z,42.90
2018-02-24T01:38:42.895Z,53.83
2018-02-24T01:41:10.348Z,53.60
2018-02-24T01:43:37.820Z,47.05
2018-02-24T01:46:05.417Z,46.17
2018-02-24T01:48:32.877Z,48.85
2018-02-24T01:51:00.366Z,46.70
2018-02-24T01:53:27.824Z,45.28
2018-02-24T01:55:55.302Z,51.67
2018-02-24T01:58:22.765Z,42.80
2018-02-24T02:00:50.214Z,40.45
2018-02-24T02:03:17.999Z,50.25
2018-02-24T02:05:45.458Z,45.58
2018-02-24T02:08:12.994Z,48.58
2018-02-24T02:10:40.483Z,59.78
2018-02-24T02:13:07.923Z,51.70
2018-02-24T02:15:35.423Z,53.28
2018-02-24T02:18:02.892Z,41.20
2018-02-24T02:20:30.334Z,56.53
2018-02-24T02:22:57.823Z,49.20
2018-02-24T02:25:25.278Z,55.70
2018-02-24T02:27:52.922Z,54.30
2018-02-24T02:30:20.380Z,45.83
2018-02-24T02:32:47.836Z,47.62
2018-02-24T02:35:15.320Z,45.40
2018-02-24T02:37:42.791Z,48.30
2018-02-24T02:40:10.250Z,49.45
2018-02-24T02:45:42.635Z,52.17
2018-02-24T02:48:10.218Z,53.63
2018-02-24T02:50:37.732Z,53.00
2018-02-24T02:53:05.272Z,48.63
2018-02-24T02:55:32.815Z,63.17
2018-02-24T02:58:00.346Z,59.78
2018-02-24T03:00:27.877Z,47.33
2018-02-24T03:02:55.378Z,55.60
2018-02-24T03:05:22.902Z,50.42
2018-02-24T03:07:50.433Z,54.22
2018-02-24T03:10:17.929Z,60.05
2018-02-24T03:12:45.450Z,61.25
2018-02-24T03:15:12.940Z,53.58
2018-02-24T03:17:40.460Z,64.28
2018-02-24T03:20:07.989Z,61.45
2018-02-24T03:22:35.506Z,58.45
2018-02-24T03:25:03.000Z,58.83
2018-02-24T03:27:30.515Z,53.47
2018-02-24T03:29:58.021Z,53.75
2018-02-24T03:32:25.536Z,59.50
2018-02-24T03:34:53.137Z,55.20
2018-02-24T03:37:20.666Z,64.72
2018-02-24T03:39:48.179Z,54.90
2018-02-24T03:42:15.723Z,60.10
2018-02-24T03:44:43.296Z,56.22
2018-02-24T03:47:10.856Z,53.75
2018-02-24T03:49:38.391Z,56.10
2018-02-24T03:52:05.892Z,57.80
2018-02-24T03:54:33.749Z,54.85
2018-02-24T03:57:01.336Z,62.50
2018-02-24T03:59:28.901Z,64.47
2018-02-24T04:01:56.405Z,60.60
2018-02-24T04:04:23.931Z,56.37
2018-02-24T04:06:51.449Z,58.55
2018-02-24T04:09:18.954Z,57.30
2018-02-24T04:11:46.474Z,64.90
2018-02-24T04:14:14.009Z,59.53
2018-02-24T04:16:41.524Z,65.47
2018-02-24T04:19:09.232Z,65.22
2018-02-24T04:21:36.760Z,59.72
2018-02-24T04:24:04.267Z,61.30
2018-02-24T04:26:31.792Z,64.15
2018-02-24T04:28:59.328Z,53.90
2018-02-24T04:31:26.841Z,63.67
2018-02-24T04:33:54.521Z,61.13
2018-02-24T04:36:22.025Z,56.47
2018-02-24T04:38:49.524Z,62.28
2018-02-24T04:41:17.058Z,58.47
2018-02-24T04:43:44.569Z,59.65
2018-02-24T04:46:12.096Z,57.78
2018-02-24T04:48:39.737Z,67.80
2018-02-24T04:51:07.307Z,58.42
2018-02-24T04:53:34.822Z,63.60
2018-02-24T04:56:02.330Z,74.00
2018-02-24T04:58:29.891Z,62.38
2018-02-24T05:00:57.512Z,69.10
2018-02-24T05:03:25.039Z,65.28
2018-02-24T05:05:52.518Z,56.63
2018-02-24T05:08:20.051Z,63.80
2018-02-24T05:10:47.610Z,70.12
2018-02-24T05:13:15.131Z,67.82
2018-02-24T05:15:42.688Z,67.62
2018-02-24T05:18:10.213Z,65.68
2018-02-24T05:20:37.740Z,65.37
2018-02-24T05:23:05.298Z,64.40
2018-02-24T05:25:32.824Z,71.37
2018-02-24T05:28:00.318Z,72.10
2018-02-24T05:30:27.842Z,62.47
2018-02-24T05:32:55.414Z,66.00
2018-02-24T05:35:22.932Z,66.12
2018-02-24T05:37:50.460Z,69.75
2018-02-24T05:40:18.066Z,64.50
2018-02-24T05:42:45.599Z,69.50
2018-02-24T05:45:13.123Z,54.60
2018-02-24T05:47:40.694Z,65.62
2018-02-24T05:50:08.219Z,61.47
2018-02-24T05:52:35.763Z,73.82
2018-02-24T05:55:03.318Z,76.35
2018-02-24T05:57:30.838Z,79.28
2018-02-24T05:59:58.368Z,67.60
2018-02-24T06:02:25.900Z,60.75
2018-02-24T06:04:53.400Z,76.18
2018-02-24T06:07:20.936Z,73.25
2018-02-24T06:09:48.452Z,69.57
2018-02-24T06:12:15.985Z,75.50
2018-02-24T06:14:43.517Z,62.90
2018-02-24T06:17:11.038Z,58.83
2018-02-24T06:19:38.546Z,63.55
2018-02-24T06:22:06.078Z,72.00
2018-02-24T06:24:33.608Z,67.10
2018-02-24T06:27:01.142Z,77.37
2018-02-24T06:29:28.669Z,68.05
2018-02-24T06:31:56.172Z,70.10
2018-02-24T06:34:23.726Z,70.30
2018-02-24T06:36:51.332Z,73.75
2018-02-24T06:39:18.904Z,68.32
2018-02-24T06:41:46.425Z,78.47
2018-02-24T06:44:13.999Z,73.90
2018-02-24T06:46:41.526Z,77.40
2018-02-24T06:49:09.145Z,74.20
2018-02-24T06:51:36.681Z,74.90
2018-02-24T06:54:04.249Z,69.10
2018-02-24T06:56:31.817Z,70.68
2018-02-24T06:58:59.316Z,61.35
2018-02-24T07:01:26.960Z,69.28
2018-02-24T07:03:54.500Z,75.57
2018-02-24T07:06:22.065Z,70.75
2018-02-24T07:08:49.634Z,67.75
2018-02-24T07:11:17.144Z,79.82
2018-02-24T07:13:44.713Z,72.90
2018-02-24T07:16:12.228Z,57.45
2018-02-24T07:18:39.782Z,69.57
2018-02-24T07:21:07.305Z,74.28
2018-02-24T07:23:34.951Z,96.35
2018-02-24T07:26:02.529Z,64.68
2018-02-24T07:28:30.041Z,69.90
2018-02-24T07:30:57.746Z,61.78
2018-02-24T07:33:25.300Z,67.43
2018-02-24T07:35:52.867Z,53.90
2018-02-24T07:38:20.430Z,64.62
2018-02-24T07:40:47.960Z,69.70
2018-02-24T07:43:15.508Z,53.20
2018-02-24T07:45:43.068Z,67.90
2018-02-24T07:48:10.673Z,65.30
2018-02-24T07:50:38.213Z,60.28
2018-02-24T07:53:05.738Z,56.67
2018-02-24T07:55:33.513Z,63.15
2018-02-24T07:58:01.025Z,61.80
2018-02-24T08:00:28.535Z,62.60
2018-02-24T08:02:56.106Z,64.70
2018-02-24T08:20:00.842Z,57.78
2018-02-24T08:22:28.401Z,61.47
2018-02-24T08:24:56.059Z,54.58
2018-02-24T08:27:23.594Z,60.95
2018-02-24T08:29:51.127Z,57.60
2018-02-24T08:32:18.640Z,50.50
2018-02-24T08:34:46.315Z,48.30
2018-02-24T08:37:13.919Z,61.72
2018-02-24T08:39:43.582Z,50.50
2018-02-24T08:42:11.126Z,56.37
2018-02-24T08:44:38.836Z,56.63
2018-02-24T08:47:06.389Z,54.13
2018-02-24T08:49:33.922Z,63.67
2018-02-24T08:52:01.442Z,49.38
2018-02-24T08:54:29.022Z,46.60
2018-02-24T08:56:56.886Z,51.08
2018-02-24T08:59:24.446Z,52.90
2018-02-24T09:01:51.957Z,52.00
2018-02-24T09:04:19.551Z,48.08
2018-02-24T09:06:47.131Z,47.20
2018-02-24T09:09:14.702Z,49.70
2018-02-24T09:11:42.221Z,52.22
2018-02-24T09:14:09.846Z,49.63
2018-02-24T09:16:37.406Z,53.17
2018-02-24T09:19:16.486Z,47.05
2018-02-24T09:21:44.089Z,40.15
2018-02-24T09:24:11.589Z,47.97
2018-02-24T09:26:39.083Z,38.95
2018-02-24T09:29:06.634Z,39.40
2018-02-24T09:31:34.152Z,43.47
2018-02-24T09:34:01.785Z,43.60
2018-02-24T09:36:29.306Z,47.17
2018-02-24T09:38:56.842Z,38.10
2018-02-24T09:41:24.332Z,41.63
2018-02-24T09:43:51.904Z,39.42
2018-02-24T09:46:19.579Z,33.65
2018-02-24T09:48:47.192Z,35.42
2018-02-24T09:51:14.748Z,41.08
2018-02-24T09:53:42.351Z,44.22
2018-02-24T09:56:09.936Z,37.80
2018-02-24T09:58:37.540Z,37.00
2018-02-24T10:01:07.329Z,36.22
2018-02-24T10:03:35.047Z,33.05
2018-02-24T10:06:02.577Z,37.78
2018-02-24T10:08:30.179Z,36.13
2018-02-24T10:10:57.673Z,32.72
2018-02-24T10:13:25.178Z,40.50
2018-02-24T10:15:52.711Z,31.27
2018-02-24T10:18:21.679Z,30.08
2018-02-24T10:20:49.291Z,30.45
2018-02-24T10:23:16.852Z,32.53
2018-02-24T10:25:44.521Z,30.62
2018-02-24T10:28:12.048Z,37.42
2018-02-24T10:30:39.685Z,29.83
2018-02-24T10:33:07.208Z,31.02
2018-02-24T10:35:34.723Z,27.08
2018-02-24T10:38:02.234Z,30.05
2018-02-24T10:40:29.876Z,35.85
2018-02-24T10:42:57.439Z,30.75
2018-02-24T10:45:24.967Z,29.75
2018-02-24T10:47:52.473Z,29.23
2018-02-24T10:50:19.962Z,29.40
2018-02-24T10:52:47.472Z,29.35
2018-02-24T10:55:14.972Z,27.95
2018-02-24T10:57:42.485Z,26.40
2018-02-24T11:00:10.124Z,28.77
2018-02-24T11:02:37.672Z,30.50
2018-02-24T11:05:05.199Z,27.37
2018-02-24T11:07:32.797Z,29.42
2018-02-24T11:10:00.631Z,27.98
2018-02-24T11:12:28.160Z,29.35
2018-02-24T11:14:55.663Z,29.83
2018-02-24T11:17:23.162Z,30.02
2018-02-24T11:19:50.852Z,31.27
2018-02-24T11:22:18.617Z,29.98
2018-02-24T11:24:46.134Z,33.25
2018-02-24T11:27:13.666Z,27.40
2018-02-24T11:29:41.221Z,32.45
2018-02-24T11:32:08.729Z,30.50
2018-02-24T11:34:36.314Z,25.55
2018-02-24T11:37:03.952Z,28.27
2018-02-24T11:39:37.026Z,27.98
2018-02-24T11:42:04.537Z,29.37
2018-02-24T11:44:32.056Z,26.95
2018-02-24T11:46:59.611Z,24.63
2018-02-24T11:49:27.114Z,24.23
2018-02-24T11:51:54.636Z,23.17
2018-02-24T11:54:22.184Z,29.00
2018-02-24T11:56:49.796Z,28.10
2018-02-24T11:59:17.369Z,26.85
2018-02-24T12:01:44.868Z,28.55
2018-02-24T12:04:12.391Z,25.77
2018-02-24T12:06:39.871Z,25.17
2018-02-24T12:09:07.409Z,26.08
2018-02-24T12:11:34.958Z,24.25
2018-02-24T12:14:02.482Z,22.08
2018-02-24T12:16:29.992Z,22.42
2018-02-24T12:18:57.531Z,27.52
2018-02-24T12:21:25.049Z,24.02
2018-02-24T12:26:45.712Z,24.87
2018-02-24T12:34:59.165Z,34.67
2018-02-24T12:37:26.658Z,28.40
2018-02-24T12:39:54.186Z,26.77
2018-02-24T12:42:21.691Z,22.10
2018-02-24T12:44:49.178Z,24.67
2018-02-24T12:47:16.745Z,21.63
2018-02-24T12:49:44.306Z,23.83
2018-02-24T12:52:11.825Z,28.53
2018-02-24T12:54:39.340Z,21.17
2018-02-24T12:57:07.863Z,24.97
2018-02-24T12:59:35.356Z,22.90
2018-02-24T13:02:02.869Z,17.77
2018-02-24T13:04:31.406Z,24.63
2018-02-24T13:06:58.982Z,18.67
2018-02-24T13:09:26.490Z,20.07
2018-02-24T13:11:53.986Z,24.03
2018-02-24T13:14:21.502Z,21.30
2018-02-24T13:16:48.996Z,18.30
2018-02-24T13:19:16.644Z,20.13
2018-02-24T13:22:05.376Z,20.23
2018-02-24T13:24:43.077Z,20.70
2018-02-24T13:27:17.010Z,18.90
2018-02-24T13:29:48.932Z,19.87
2018-02-24T13:32:22.159Z,17.20
2018-02-24T13:34:55.162Z,17.77
2018-02-24T13:37:23.198Z,16.83
2018-02-24T13:40:04.151Z,17.20
2018-02-24T13:42:32.274Z,15.13
2018-02-24T13:45:01.087Z,17.10
2018-02-24T13:47:32.386Z,18.07
2018-02-24T13:50:00.188Z,16.33
2018-02-24T13:55:05.080Z,16.70
2018-02-24T13:57:46.591Z,18.47
2018-02-24T14:00:17.371Z,16.40
2018-02-24T14:02:45.199Z,19.40
2018-02-24T14:05:13.816Z,18.93
2018-02-24T14:07:43.866Z,17.00
2018-02-24T14:10:14.549Z,18.47
2018-02-24T14:12:42.524Z,16.70
2018-02-24T14:15:37.665Z,17.70
2018-02-24T14:18:08.389Z,15.53
2018-02-24T14:20:36.130Z,16.10
2018-02-24T14:23:03.949Z,18.33
2018-02-24T14:25:31.665Z,16.80
2018-02-24T14:28:09.066Z,17.93
2018-02-24T14:30:36.774Z,22.27
2018-02-24T14:33:04.300Z,28.40
2018-02-24T14:35:31.881Z,21.90
2018-02-24T14:37:59.394Z,26.53
2018-02-24T14:40:27.108Z,23.30
2018-02-24T14:42:54.610Z,22.00
2018-02-24T14:45:22.186Z,23.57
2018-02-24T14:47:49.705Z,17.40
2018-02-24T14:50:17.226Z,26.67
2018-02-24T14:52:44.727Z,21.73
2018-02-24T14:55:12.251Z,22.77
2018-02-24T14:57:39.774Z,20.63
2018-02-24T15:00:07.346Z,20.93
2018-02-24T15:02:34.845Z,22.60
2018-02-24T15:05:02.381Z,23.37
2018-02-24T15:07:30.019Z,19.60
2018-02-24T15:09:57.513Z,24.70
2018-02-24T15:12:25.009Z,18.47
2018-02-24T15:14:52.514Z,21.20
2018-02-24T15:17:20.046Z,19.47
2018-02-24T15:19:47.564Z,19.27
2018-02-24T15:22:15.089Z,20.47
2018-02-24T15:24:42.617Z,17.43
2018-02-24T15:27:10.161Z,20.23
2018-02-24T15:29:38.895Z,18.10
2018-02-24T15:32:06.641Z,16.20
2018-02-24T15:34:34.288Z,17.07
2018-02-24T15:37:01.790Z,19.40
2018-02-24T15:39:29.301Z,20.80
2018-02-24T15:41:56.788Z,17.00
2018-02-24T15:44:24.308Z,21.90
2018-02-24T15:46:51.992Z,21.47
2018-02-24T15:49:19.563Z,16.97
2018-02-24T15:51:49.061Z,17.97
2018-02-24T15:57:04.234Z,23.33
2018-02-24T15:59:32.428Z,15.63
2018-02-24T16:02:00.099Z,16.53
2018-02-24T16:04:27.783Z,24.90
2018-02-24T16:06:55.308Z,22.90
2018-02-24T16:09:22.940Z,22.27
2018-02-24T16:11:50.630Z,19.55
2018-02-24T16:14:18.203Z,19.80
2018-02-24T16:16:46.094Z,28.12
2018-02-24T16:19:16.574Z,22.27
2018-02-24T16:21:44.197Z,22.27
2018-02-24T16:24:13.412Z,19.73
2018-02-24T16:26:41.259Z,20.05
2018-02-24T16:29:08.744Z,21.05
2018-02-24T16:31:36.240Z,22.95
2018-02-24T16:34:04.799Z,19.25
2018-02-24T16:36:32.739Z,24.73
2018-02-24T16:39:00.999Z,18.60
2018-02-24T16:41:28.489Z,23.40
2018-02-24T16:43:55.999Z,18.92
2018-02-24T16:46:24.802Z,19.37
2018-02-24T16:48:52.464Z,19.35
2018-02-24T16:51:20.054Z,14.38
2018-02-24T16:53:47.617Z,17.35
2018-02-24T16:56:15.181Z,16.50
2018-02-24T16:58:42.760Z,43.67
2018-02-24T17:01:11.129Z,19.70
2018-02-24T17:03:40.340Z,31.98
2018-02-24T17:06:08.210Z,16.87
2018-02-24T17:08:41.370Z,14.98
2018-02-24T17:11:23.946Z,12.32
2018-02-24T17:13:58.063Z,14.80
2018-02-24T17:19:25.983Z,14.50
2018-02-24T17:21:56.511Z,18.98
2018-02-24T17:24:55.495Z,18.08
2018-02-24T17:27:26.397Z,18.58
2018-02-24T17:30:05.481Z,16.48
2018-02-24T17:32:48.994Z,18.27
2018-02-24T17:35:27.461Z,16.12
2018-02-24T17:38:05.257Z,69.80
2018-02-24T17:40:54.772Z,21.42
2018-02-24T17:43:50.050Z,23.70
2018-02-24T17:46:23.421Z,14.27
2018-02-24T17:54:46.941Z,15.05
2018-02-24T17:57:19.981Z,11.98
2018-02-24T17:59:51.949Z,14.98
2018-02-24T18:11:38.971Z,24.50
2018-02-24T18:17:11.663Z,17.65
2018-02-24T18:19:54.929Z,21.70
2018-02-24T18:22:23.672Z,16.45
2018-02-24T18:25:10.540Z,17.65
2018-02-24T18:30:32.581Z,14.77
2018-02-24T18:33:01.713Z,12.18
2018-02-24T18:35:29.641Z,15.80
2018-02-24T18:37:57.655Z,24.65
2018-02-24T18:40:25.358Z,18.75
2018-02-24T18:42:54.208Z,20.83
2018-02-24T18:45:24.787Z,22.35
2018-02-24T18:47:59.727Z,24.52
2018-02-24T18:50:32.464Z,19.65
2018-02-24T18:53:01.431Z,23.73
2018-02-24T18:55:29.541Z,19.98
2018-02-24T18:57:57.350Z,19.48
2018-02-24T19:00:25.579Z,17.35
2018-02-24T19:02:59.846Z,21.23
2018-02-24T19:05:27.381Z,21.92
2018-02-24T19:07:54.913Z,18.95
2018-02-24T19:10:22.523Z,20.23
2018-02-24T19:12:50.117Z,17.70
2018-02-24T19:15:17.724Z,28.95
2018-02-24T19:17:45.277Z,23.27
2018-02-24T19:20:12.788Z,19.60
2018-02-24T19:22:40.320Z,20.12
2018-02-24T19:25:07.962Z,17.27
2018-02-24T19:27:35.493Z,25.77
2018-02-24T19:30:03.040Z,38.92
2018-02-24T19:32:54.331Z,18.37
2018-02-24T19:35:23.272Z,18.67
2018-02-24T19:37:50.806Z,14.70
2018-02-24T19:40:18.410Z,20.62
2018-02-24T19:42:45.995Z,15.25
2018-02-24T19:45:14.003Z,16.50
2018-02-24T19:47:44.906Z,15.45
2018-02-24T19:50:15.070Z,18.90
2018-02-24T19:52:45.656Z,13.73
2018-02-24T19:55:13.479Z,13.90
2018-02-24T19:57:41.990Z,11.12
2018-02-24T20:00:09.917Z,12.80
2018-02-24T20:02:37.770Z,14.73
2018-02-24T20:05:10.728Z,17.90
2018-02-24T20:07:40.075Z,17.15
2018-02-24T20:10:07.662Z,19.15
2018-02-24T20:12:35.371Z,15.93
2018-02-24T20:15:06.021Z,14.98
2018-02-24T20:17:33.932Z,16.80
2018-02-24T20:20:01.461Z,16.30
2018-02-24T20:22:28.970Z,16.45
2018-02-24T20:24:56.471Z,10.30
2018-02-24T20:27:24.025Z,13.90
2018-02-24T20:29:51.597Z,19.45
2018-02-24T20:32:19.222Z,16.58
2018-02-24T20:34:46.918Z,15.57
2018-02-24T20:37:14.430Z,12.32
2018-02-24T20:39:41.966Z,15.68
2018-02-24T20:42:09.515Z,15.27
2018-02-24T20:44:37.041Z,17.73
2018-02-24T20:47:04.554Z,14.93
2018-02-24T20:49:32.998Z,17.75
2018-02-24T20:52:00.546Z,12.93
2018-02-24T20:54:29.038Z,10.60
2018-02-24T20:56:56.550Z,27.73
2018-02-24T20:59:24.057Z,14.55
2018-02-24T21:01:51.564Z,10.70
2018-02-24T21:04:19.086Z,18.60
2018-02-24T21:06:46.629Z,12.13
2018-02-24T21:09:14.375Z,12.07
2018-02-24T21:11:41.876Z,10.48
2018-02-24T21:14:09.559Z,16.05
2018-02-24T21:16:37.159Z,10.00
2018-02-24T21:19:04.663Z,14.70
2018-02-24T21:21:32.217Z,11.63
2018-02-24T21:23:59.764Z,16.77
2018-02-24T21:26:27.360Z,17.75
2018-02-24T21:28:54.866Z,17.95
2018-02-24T21:31:22.397Z,19.48
2018-02-24T21:33:50.010Z,21.05
2018-02-24T21:36:17.516Z,17.85
2018-02-24T21:38:45.712Z,18.27
2018-02-24T21:41:13.347Z,15.18
2018-02-24T21:43:40.942Z,13.13
2018-02-24T21:46:08.479Z,15.20
2018-02-24T21:48:36.069Z,14.27
2018-02-24T21:51:03.624Z,11.80
2018-02-24T21:53:31.254Z,58.00
2018-02-24T21:55:59.851Z,22.90
2018-02-24T21:58:27.510Z,17.10
2018-02-24T22:00:55.012Z,12.70
2018-02-24T22:03:22.800Z,12.43
2018-02-24T22:05:50.706Z,20.98
2018-02-24T22:08:18.269Z,12.65
2018-02-24T22:10:45.766Z,15.30
2018-02-24T22:13:13.348Z,10.18
2018-02-24T22:15:40.944Z,10.02
2018-02-24T22:18:08.680Z,11.43
2018-02-24T22:20:36.400Z,16.02
2018-02-24T22:23:03.929Z,7.20
2018-02-24T22:25:32.421Z,12.65
2018-02-24T22:28:00.081Z,14.05
2018-02-24T22:30:27.687Z,9.13
2018-02-24T22:32:55.209Z,12.02
2018-02-24T22:35:22.731Z,18.55
2018-02-24T22:37:50.414Z,14.87
2018-02-24T22:40:17.961Z,13.90
2018-02-24T22:42:45.661Z,11.15
2018-02-24T22:45:13.255Z,110.35
2018-02-24T22:47:46.243Z,13.02
2018-02-24T22:50:13.786Z,14.23
2018-02-24T22:52:42.205Z,13.20
2018-02-24T22:55:12.529Z,10.88
2018-02-24T22:57:40.820Z,10.02
2018-02-24T23:00:12.217Z,10.60
2018-02-24T23:03:02.320Z,15.30
2018-02-24T23:05:29.900Z,9.65
2018-02-24T23:07:57.559Z,11.18
2018-02-24T23:10:25.210Z,12.27
2018-02-24T23:12:53.810Z,16.37
2018-02-24T23:15:21.637Z,11.18
2018-02-24T23:17:49.319Z,11.57
2018-02-24T23:20:16.926Z,13.30
2018-02-24T23:22:44.761Z,15.43
2018-02-24T23:25:13.105Z,13.93
2018-02-24T23:27:43.385Z,11.88
2018-02-24T23:30:10.983Z,13.62
2018-02-24T23:32:38.558Z,10.40
2018-02-24T23:35:06.424Z,21.83
2018-02-24T23:37:34.326Z,10.20
2018-02-24T23:40:02.567Z,11.25
2018-02-24T23:42:31.331Z,12.95
2018-02-24T23:44:59.914Z,11.77
2018-02-24T23:47:27.616Z,23.52
2018-02-24T23:49:55.495Z,15.25
2018-02-24T23:52:23.066Z,14.95
2018-02-24T23:54:50.615Z,13.88
2018-02-24T23:57:18.117Z,9.30
2018-02-24T23:59:45.818Z,11.88
